createdAt,value
2018-05-08T00:00:41.567Z,6.83
2018-05-08T00:03:10.131Z,7.33
2018-05-08T00:05:38.748Z,6.73
2018-05-08T00:08:07.304Z,7.27
2018-05-08T00:10:35.879Z,7.03
2018-05-08T00:13:04.466Z,7.00
2018-05-08T00:15:33.061Z,8.10
2018-05-08T00:18:01.628Z,7.67
2018-05-08T00:20:30.231Z,7.27
2018-05-08T00:22:58.470Z,7.50
2018-05-08T00:25:27.077Z,7.47
2018-05-08T00:27:55.747Z,8.13
2018-05-08T00:30:24.448Z,7.50
2018-05-08T00:32:53.011Z,7.37
2018-05-08T00:35:21.585Z,7.43
2018-05-08T00:37:50.148Z,7.00
2018-05-08T00:40:18.696Z,7.00
2018-05-08T00:42:47.260Z,8.13
2018-05-08T00:45:15.813Z,7.60
2018-05-08T00:47:44.426Z,7.53
2018-05-08T00:50:12.991Z,7.40
2018-05-08T00:52:41.564Z,7.23
2018-05-08T00:55:10.113Z,7.03
2018-05-08T00:57:38.701Z,7.70
2018-05-08T01:00:07.306Z,7.90
2018-05-08T01:02:35.867Z,7.63
2018-05-08T01:05:04.419Z,7.80
2018-05-08T01:07:33.012Z,7.87
2018-05-08T01:10:01.698Z,7.53
2018-05-08T01:12:30.255Z,7.80
2018-05-08T01:14:58.838Z,8.13
2018-05-08T01:17:27.402Z,7.67
2018-05-08T01:19:56.645Z,8.30
2018-05-08T01:22:25.200Z,8.73
2018-05-08T01:24:53.774Z,8.03
2018-05-08T01:27:22.335Z,8.87
2018-05-08T01:29:51.056Z,8.47
2018-05-08T01:32:19.620Z,8.00
2018-05-08T01:34:48.188Z,8.57
2018-05-08T01:37:17.725Z,8.43
2018-05-08T01:39:46.332Z,8.67
2018-05-08T01:42:14.780Z,9.83
2018-05-08T01:44:43.461Z,9.17
2018-05-08T01:47:12.060Z,9.83
2018-05-08T01:49:41.597Z,9.50
2018-05-08T01:52:10.331Z,9.23
2018-05-08T01:54:38.748Z,9.93
2018-05-08T01:57:07.323Z,10.10
2018-05-08T01:59:35.891Z,9.73
2018-05-08T02:02:03.907Z,9.37
2018-05-08T02:04:32.492Z,9.10
2018-05-08T02:07:00.882Z,9.60
2018-05-08T02:09:29.471Z,8.97
2018-05-08T02:11:58.024Z,9.40
2018-05-08T02:14:26.588Z,9.03
2018-05-08T02:16:55.151Z,9.40
2018-05-08T02:19:23.483Z,9.43
2018-05-08T02:21:52.073Z,8.63
2018-05-08T02:24:22.033Z,9.37
2018-05-08T02:26:50.743Z,8.80
2018-05-08T02:29:19.296Z,9.57
2018-05-08T02:31:47.876Z,8.90
2018-05-08T02:34:16.431Z,9.07
2018-05-08T02:36:45.047Z,10.03
2018-05-08T02:39:13.600Z,9.37
2018-05-08T02:41:42.150Z,8.67
2018-05-08T02:44:10.715Z,8.70
2018-05-08T02:46:39.274Z,9.43
2018-05-08T02:49:07.828Z,9.00
2018-05-08T02:51:36.400Z,9.50
2018-05-08T02:54:04.967Z,8.93
2018-05-08T02:56:33.570Z,8.77
2018-05-08T02:59:02.133Z,9.63
2018-05-08T03:01:30.698Z,9.10
2018-05-08T03:03:59.273Z,9.87
2018-05-08T03:06:27.829Z,9.60
2018-05-08T03:08:56.159Z,9.57
2018-05-08T03:11:24.765Z,10.73
2018-05-08T03:13:53.373Z,9.97
2018-05-08T03:16:21.937Z,9.80
2018-05-08T03:18:49.851Z,10.30
2018-05-08T03:21:18.407Z,9.60
2018-05-08T03:23:46.979Z,10.47
2018-05-08T03:26:15.550Z,10.57
2018-05-08T03:28:44.111Z,10.00
2018-05-08T03:31:12.668Z,9.90
2018-05-08T03:33:41.229Z,10.33
2018-05-08T03:36:09.807Z,10.07
2018-05-08T03:38:38.411Z,9.93
2018-05-08T03:41:06.966Z,10.50
2018-05-08T03:43:35.513Z,10.63
2018-05-08T03:46:04.070Z,10.73
2018-05-08T03:48:32.664Z,10.90
2018-05-08T03:51:01.005Z,11.07
2018-05-08T03:53:29.580Z,11.30
2018-05-08T03:55:58.240Z,11.00
2018-05-08T03:58:26.848Z,11.43
2018-05-08T04:01:06.397Z,11.87
2018-05-08T04:03:46.085Z,12.73
2018-05-08T04:06:30.599Z,12.60
2018-05-08T04:08:59.158Z,11.97
2018-05-08T04:11:27.737Z,13.57
2018-05-08T04:13:56.325Z,12.57
2018-05-08T04:16:24.895Z,12.00
2018-05-08T04:18:53.456Z,12.53
2018-05-08T04:21:22.014Z,12.00
2018-05-08T04:23:50.596Z,11.53
2018-05-08T04:26:19.163Z,12.47
2018-05-08T04:28:47.743Z,13.03
2018-05-08T04:31:16.303Z,12.83
2018-05-08T04:33:44.873Z,12.10
2018-05-08T04:36:13.432Z,12.40
2018-05-08T04:38:42.015Z,12.50
2018-05-08T04:41:10.604Z,13.17
2018-05-08T04:43:39.185Z,12.77
2018-05-08T04:46:07.769Z,12.93
2018-05-08T04:48:36.336Z,14.40
2018-05-08T04:51:04.896Z,13.63
2018-05-08T04:53:33.456Z,12.47
2018-05-08T04:56:02.046Z,12.40
2018-05-08T04:58:30.611Z,12.17
2018-05-08T05:00:59.186Z,11.43
2018-05-08T05:03:27.764Z,11.60
2018-05-08T05:05:56.414Z,12.30
2018-05-08T05:08:25.123Z,11.77
2018-05-08T05:10:53.781Z,12.00
2018-05-08T05:13:22.340Z,11.43
2018-05-08T05:15:50.956Z,11.37
2018-05-08T05:18:19.526Z,11.00
2018-05-08T05:20:48.127Z,12.13
2018-05-08T05:23:16.752Z,11.60
2018-05-08T05:25:45.363Z,12.47
2018-05-08T05:28:13.929Z,11.63
2018-05-08T05:30:42.527Z,12.40
2018-05-08T05:33:11.091Z,12.73
2018-05-08T05:35:39.667Z,12.10
2018-05-08T05:38:08.262Z,14.20
2018-05-08T05:40:36.833Z,16.27
2018-05-08T05:43:05.599Z,17.33
2018-05-08T05:45:34.168Z,15.43
2018-05-08T05:48:02.738Z,14.43
2018-05-08T05:50:31.307Z,14.33
2018-05-08T05:52:59.901Z,13.30
2018-05-08T05:55:28.485Z,13.07
2018-05-08T05:57:57.050Z,12.60
2018-05-08T06:00:25.672Z,12.03
2018-05-08T06:02:54.241Z,12.43
2018-05-08T06:05:22.580Z,10.97
2018-05-08T06:07:51.141Z,11.20
2018-05-08T06:10:19.938Z,12.07
2018-05-08T06:12:48.540Z,11.23
2018-05-08T06:15:17.112Z,11.70
2018-05-08T06:17:45.723Z,12.03
2018-05-08T06:20:14.344Z,12.10
2018-05-08T06:22:42.962Z,12.13
2018-05-08T06:25:11.529Z,12.20
2018-05-08T06:27:40.109Z,13.00
2018-05-08T06:30:08.732Z,12.33
2018-05-08T06:32:37.292Z,12.97
2018-05-08T06:35:06.072Z,12.23
2018-05-08T06:37:34.633Z,12.27
2018-05-08T06:40:03.278Z,13.27
2018-05-08T06:42:32.033Z,12.97
2018-05-08T06:45:00.617Z,11.53
2018-05-08T06:47:29.375Z,12.50
2018-05-08T06:49:57.985Z,10.20
2018-05-08T06:52:26.584Z,12.20
2018-05-08T06:54:55.214Z,11.67
2018-05-08T06:57:23.821Z,10.70
2018-05-08T06:59:52.406Z,12.23
2018-05-08T07:02:21.194Z,11.97
2018-05-08T07:04:49.742Z,11.30
2018-05-08T07:07:18.332Z,11.37
2018-05-08T07:09:46.667Z,11.30
2018-05-08T07:12:15.215Z,9.33
2018-05-08T07:14:43.782Z,7.80
2018-05-08T07:17:12.359Z,10.00
2018-05-08T07:19:40.926Z,9.20
2018-05-08T07:22:09.561Z,9.10
2018-05-08T07:24:38.120Z,9.50
2018-05-08T07:27:06.699Z,8.27
2018-05-08T07:29:35.334Z,8.43
2018-05-08T07:32:03.901Z,7.97
2018-05-08T07:34:32.453Z,8.37
2018-05-08T07:37:01.019Z,8.00
2018-05-08T07:39:29.590Z,7.57
2018-05-08T07:41:58.156Z,7.30
2018-05-08T07:44:26.767Z,6.97
2018-05-08T07:46:55.332Z,7.63
2018-05-08T07:49:23.882Z,7.47
2018-05-08T07:51:52.486Z,8.03
2018-05-08T07:54:21.055Z,7.77
2018-05-08T07:56:49.608Z,7.73
2018-05-08T07:59:18.202Z,7.83
2018-05-08T08:01:46.766Z,7.60
2018-05-08T08:04:15.319Z,6.63
2018-05-08T08:06:43.964Z,7.13
2018-05-08T08:09:12.522Z,6.73
2018-05-08T08:11:41.076Z,6.70
2018-05-08T08:14:09.657Z,6.07
2018-05-08T08:16:38.268Z,5.53
2018-05-08T08:19:06.900Z,6.10
2018-05-08T08:21:35.313Z,5.63
2018-05-08T08:24:04.162Z,6.10
2018-05-08T08:26:32.741Z,5.90
2018-05-08T08:29:01.352Z,6.33
2018-05-08T08:31:29.957Z,5.67
2018-05-08T08:33:58.642Z,5.93
2018-05-08T08:36:27.384Z,5.80
2018-05-08T08:39:29.671Z,5.97
2018-05-08T08:41:58.236Z,5.77
2018-05-08T08:44:26.807Z,6.20
2018-05-08T08:46:57.028Z,5.63
2018-05-08T08:49:25.409Z,5.80
2018-05-08T08:51:54.126Z,5.30
2018-05-08T08:54:22.706Z,5.27
2018-05-08T08:56:51.290Z,5.87
2018-05-08T08:59:19.867Z,5.60
2018-05-08T09:01:48.440Z,5.00
2018-05-08T09:04:16.996Z,5.70
2018-05-08T09:06:45.551Z,5.57
2018-05-08T09:09:14.183Z,5.43
2018-05-08T09:11:42.739Z,5.63
2018-05-08T09:14:11.081Z,5.50
2018-05-08T09:16:39.631Z,5.43
2018-05-08T09:19:08.189Z,4.90
2018-05-08T09:21:36.829Z,4.70
2018-05-08T09:24:05.398Z,4.73
2018-05-08T09:26:34.149Z,5.03
2018-05-08T09:29:02.713Z,5.07
2018-05-08T09:31:31.280Z,5.10
2018-05-08T09:33:59.877Z,4.60
2018-05-08T09:36:28.452Z,4.73
2018-05-08T09:38:57.032Z,5.00
2018-05-08T09:41:25.611Z,4.53
2018-05-08T09:43:54.180Z,4.30
2018-05-08T09:46:22.938Z,5.27
2018-05-08T09:48:51.621Z,5.00
2018-05-08T09:51:20.295Z,4.87
2018-05-08T09:53:48.864Z,5.43
2018-05-08T09:56:17.435Z,4.87
2018-05-08T09:58:45.992Z,5.30
2018-05-08T10:01:14.562Z,5.27
2018-05-08T10:03:43.155Z,4.90
2018-05-08T10:06:11.719Z,4.73
2018-05-08T10:08:40.310Z,4.33
2018-05-08T10:11:08.872Z,4.63
2018-05-08T10:13:37.474Z,4.90
2018-05-08T10:16:05.799Z,5.13
2018-05-08T10:18:34.408Z,4.83
2018-05-08T10:21:03.050Z,4.57
2018-05-08T10:23:31.657Z,4.00
2018-05-08T10:26:00.274Z,4.60
2018-05-08T10:28:28.842Z,4.43
2018-05-08T10:30:57.449Z,4.37
2018-05-08T10:33:26.016Z,4.43
2018-05-08T10:35:54.595Z,4.80
2018-05-08T10:38:23.221Z,4.63
2018-05-08T10:40:51.793Z,4.40
2018-05-08T10:43:20.121Z,4.57
2018-05-08T10:45:48.735Z,4.10
2018-05-08T10:48:17.339Z,3.90
2018-05-08T10:50:45.946Z,4.00
2018-05-08T10:53:14.543Z,3.90
2018-05-08T10:55:43.235Z,3.57
2018-05-08T10:58:11.911Z,4.13
2018-05-08T11:00:40.467Z,3.47
2018-05-08T11:03:09.079Z,4.10
2018-05-08T11:05:37.631Z,3.80
2018-05-08T11:08:06.187Z,3.83
2018-05-08T11:10:34.746Z,4.37
2018-05-08T11:13:03.300Z,3.77
2018-05-08T11:15:31.875Z,3.73
2018-05-08T11:18:00.492Z,4.07
2018-05-08T11:20:29.231Z,3.67
2018-05-08T11:22:57.818Z,3.43
2018-05-08T11:25:26.437Z,3.60
2018-05-08T11:27:54.987Z,3.47
2018-05-08T11:30:23.614Z,3.23
2018-05-08T11:32:52.174Z,3.27
2018-05-08T11:35:20.738Z,3.50
2018-05-08T11:37:49.335Z,3.60
2018-05-08T11:40:17.893Z,3.10
2018-05-08T11:42:46.480Z,2.90
2018-05-08T11:45:15.051Z,3.37
2018-05-08T11:47:43.645Z,3.60
2018-05-08T11:50:12.251Z,3.40
2018-05-08T11:52:40.815Z,3.20
2018-05-08T11:55:09.383Z,3.23
2018-05-08T11:57:37.990Z,3.67
2018-05-08T12:00:06.589Z,3.37
2018-05-08T12:02:35.235Z,3.00
2018-05-08T12:05:04.002Z,3.27
2018-05-08T12:07:32.567Z,3.17
2018-05-08T12:10:01.147Z,3.50
2018-05-08T12:12:29.748Z,3.00
2018-05-08T12:14:58.294Z,3.20
2018-05-08T12:17:26.895Z,3.00
2018-05-08T12:19:55.456Z,3.00
2018-05-08T12:22:24.123Z,2.93
2018-05-08T12:24:52.704Z,2.87
2018-05-08T12:27:21.367Z,2.97
2018-05-08T12:29:49.932Z,3.23
2018-05-08T12:32:18.517Z,3.47
2018-05-08T12:34:47.115Z,3.77
2018-05-08T12:37:15.716Z,2.87
2018-05-08T12:39:44.314Z,3.27
2018-05-08T12:42:12.711Z,3.20
2018-05-08T12:44:41.244Z,3.10
2018-05-08T12:47:09.722Z,3.10
2018-05-08T12:49:38.320Z,2.57
2018-05-08T12:52:06.928Z,2.83
2018-05-08T12:54:35.485Z,3.10
2018-05-08T12:57:03.684Z,2.70
2018-05-08T12:59:32.268Z,3.07
2018-05-08T13:02:01.048Z,3.50
2018-05-08T13:04:29.636Z,2.77
2018-05-08T13:06:58.201Z,2.60
2018-05-08T13:09:27.422Z,2.70
2018-05-08T13:11:55.975Z,2.90
2018-05-08T13:14:24.567Z,2.97
2018-05-08T13:16:53.120Z,3.37
2018-05-08T13:19:21.671Z,2.87
2018-05-08T13:21:50.231Z,3.07
2018-05-08T13:24:18.840Z,3.00
2018-05-08T13:26:47.401Z,3.90
2018-05-08T13:29:15.961Z,4.37
2018-05-08T13:31:44.566Z,4.03
2018-05-08T13:34:13.134Z,4.37
2018-05-08T13:36:41.710Z,4.03
2018-05-08T13:39:10.564Z,3.37
2018-05-08T13:41:39.122Z,3.30
2018-05-08T13:44:07.686Z,3.57
2018-05-08T13:46:36.254Z,3.53
2018-05-08T13:49:04.834Z,3.60
2018-05-08T13:51:33.405Z,3.63
2018-05-08T13:54:02.001Z,3.60
2018-05-08T13:56:30.564Z,3.60
2018-05-08T13:58:59.149Z,4.50
2018-05-08T14:01:27.716Z,3.40
2018-05-08T14:03:56.273Z,3.50
2018-05-08T14:06:24.827Z,3.53
2018-05-08T14:08:53.422Z,2.93
2018-05-08T14:11:21.986Z,3.33
2018-05-08T14:13:50.547Z,3.20
2018-05-08T14:16:19.159Z,3.60
2018-05-08T14:18:47.717Z,3.27
2018-05-08T14:21:16.277Z,3.53
2018-05-08T14:23:44.843Z,3.20
2018-05-08T14:26:13.403Z,3.00
2018-05-08T14:28:41.967Z,2.90
2018-05-08T14:31:10.601Z,2.90
2018-05-08T14:33:39.172Z,3.27
2018-05-08T14:36:07.758Z,3.03
2018-05-08T14:38:36.406Z,3.10
2018-05-08T14:41:05.166Z,3.40
2018-05-08T14:43:33.741Z,3.37
2018-05-08T14:46:02.473Z,3.10
2018-05-08T14:48:31.019Z,2.80
2018-05-08T14:50:59.692Z,3.03
2018-05-08T14:53:28.261Z,3.20
2018-05-08T14:55:56.838Z,3.43
2018-05-08T14:58:25.408Z,3.10
2018-05-08T15:00:53.955Z,3.07
2018-05-08T15:03:22.510Z,3.30
2018-05-08T15:05:51.126Z,3.90
2018-05-08T15:08:19.692Z,6.13
2018-05-08T15:10:48.251Z,3.13
2018-05-08T15:13:16.821Z,5.77
2018-05-08T15:15:45.564Z,4.73
2018-05-08T15:18:14.178Z,3.37
2018-05-08T15:20:42.777Z,3.50
2018-05-08T15:23:11.332Z,3.43
2018-05-08T15:25:39.907Z,3.33
2018-05-08T15:28:08.501Z,4.63
2018-05-08T15:30:37.941Z,3.73
2018-05-08T15:33:07.011Z,4.33
2018-05-08T15:35:35.565Z,3.40
2018-05-08T15:38:04.131Z,3.80
2018-05-08T15:40:32.714Z,3.30
2018-05-08T15:43:01.277Z,3.40
2018-05-08T15:45:29.819Z,3.70
2018-05-08T15:47:58.368Z,4.07
2018-05-08T15:50:26.963Z,3.40
2018-05-08T15:52:55.520Z,2.70
2018-05-08T15:55:24.094Z,2.60
2018-05-08T15:57:52.701Z,2.93
2018-05-08T16:00:21.301Z,2.90
2018-05-08T16:02:49.852Z,3.17
2018-05-08T16:05:18.448Z,2.83
2018-05-08T16:07:47.338Z,3.10
2018-05-08T16:10:16.132Z,3.10
2018-05-08T16:12:44.717Z,2.53
2018-05-08T16:15:13.281Z,2.83
2018-05-08T16:17:41.856Z,2.33
2018-05-08T16:20:10.424Z,3.00
2018-05-08T16:22:38.983Z,2.67
2018-05-08T16:25:07.594Z,2.60
2018-05-08T16:27:36.187Z,2.60
2018-05-08T16:30:08.855Z,2.87
2018-05-08T16:32:38.359Z,2.60
2018-05-08T16:35:06.913Z,2.80
2018-05-08T16:37:35.469Z,3.30
2018-05-08T16:40:03.799Z,2.83
2018-05-08T16:42:32.399Z,3.27
2018-05-08T16:45:00.961Z,2.90
2018-05-08T16:47:29.515Z,2.80
2018-05-08T16:50:00.157Z,2.90
2018-05-08T16:52:28.751Z,3.43
2018-05-08T16:54:57.361Z,2.73
2018-05-08T16:57:25.936Z,2.90
2018-05-08T16:59:54.493Z,2.83
2018-05-08T17:02:23.555Z,3.03
2018-05-08T17:04:52.177Z,2.87
2018-05-08T17:07:20.867Z,3.60
2018-05-08T17:09:49.463Z,3.07
2018-05-08T17:12:18.020Z,3.30
2018-05-08T17:14:47.459Z,2.80
2018-05-08T17:17:16.749Z,3.10
2018-05-08T17:19:45.581Z,3.13
2018-05-08T17:22:14.170Z,3.23
2018-05-08T17:24:42.491Z,3.13
2018-05-08T17:27:11.118Z,3.57
2018-05-08T17:29:39.672Z,2.57
2018-05-08T17:32:08.238Z,3.03
2018-05-08T17:34:36.861Z,3.23
2018-05-08T17:37:05.419Z,3.60
2018-05-08T17:39:34.007Z,2.83
2018-05-08T17:42:03.421Z,3.00
2018-05-08T17:44:31.976Z,3.20
2018-05-08T17:47:02.024Z,2.73
2018-05-08T17:49:30.587Z,3.07
2018-05-08T17:51:59.250Z,6.30
2018-05-08T17:54:28.560Z,3.30
2018-05-08T17:56:57.153Z,3.10
2018-05-08T17:59:25.790Z,3.17
2018-05-08T18:01:54.369Z,2.90
2018-05-08T18:04:23.066Z,4.30
2018-05-08T18:06:51.723Z,3.83
2018-05-08T18:09:20.283Z,3.57
2018-05-08T18:11:48.904Z,3.40
2018-05-08T18:14:23.410Z,3.13
2018-05-08T18:16:51.999Z,4.50
2018-05-08T18:19:20.554Z,3.00
2018-05-08T18:21:49.116Z,3.63
2018-05-08T18:24:17.744Z,3.67
2018-05-08T18:26:46.406Z,4.27
2018-05-08T18:29:14.994Z,3.60
2018-05-08T18:31:49.336Z,3.67
2018-05-08T18:34:18.217Z,3.57
2018-05-08T18:36:46.787Z,3.30
2018-05-08T18:39:15.343Z,3.03
2018-05-08T18:41:43.947Z,3.47
2018-05-08T18:44:12.511Z,3.53
2018-05-08T18:46:41.148Z,3.60
2018-05-08T18:49:09.740Z,3.30
2018-05-08T18:51:38.345Z,3.23
2018-05-08T18:54:06.995Z,3.57
2018-05-08T18:56:35.568Z,3.37
2018-05-08T18:59:04.147Z,3.63
2018-05-08T19:01:32.747Z,4.17
2018-05-08T19:04:01.339Z,3.70
2018-05-08T19:06:29.897Z,3.50
2018-05-08T19:08:58.468Z,3.70
2018-05-08T19:11:32.431Z,3.67
2018-05-08T19:14:01.048Z,4.03
2018-05-08T19:16:29.639Z,4.27
2018-05-08T19:19:03.600Z,4.70
2018-05-08T19:21:32.180Z,5.33
2018-05-08T19:24:06.252Z,4.30
2018-05-08T19:26:34.898Z,5.07
2018-05-08T19:29:09.096Z,5.23
2018-05-08T19:31:37.646Z,5.20
2018-05-08T19:34:06.251Z,5.27
2018-05-08T19:36:40.225Z,5.27
2018-05-08T19:39:08.824Z,4.70
2018-05-08T19:41:38.387Z,4.90
2018-05-08T19:44:07.793Z,4.53
2018-05-08T19:46:36.376Z,4.70
2018-05-08T19:49:05.025Z,5.00
2018-05-08T19:51:33.599Z,5.37
2018-05-08T19:54:02.200Z,4.77
2018-05-08T19:56:30.828Z,4.37
2018-05-08T19:58:59.407Z,3.90
2018-05-08T20:01:28.002Z,4.50
2018-05-08T20:03:56.639Z,4.27
2018-05-08T20:06:25.242Z,4.60
2018-05-08T20:08:53.871Z,4.10
2018-05-08T20:11:23.408Z,4.60
2018-05-08T20:13:52.017Z,4.43
2018-05-08T20:16:20.655Z,3.90
2018-05-08T20:18:49.217Z,4.30
2018-05-08T20:21:17.799Z,3.83
2018-05-08T20:23:46.402Z,4.10
2018-05-08T20:26:14.981Z,4.77
2018-05-08T20:28:43.754Z,4.20
2018-05-08T20:31:12.342Z,4.80
2018-05-08T20:33:41.944Z,5.77
2018-05-08T20:36:11.521Z,5.83
2018-05-08T20:38:39.962Z,5.60
2018-05-08T20:41:08.550Z,5.20
2018-05-08T20:43:37.117Z,5.37
2018-05-08T20:46:07.313Z,5.43
2018-05-08T20:48:35.874Z,4.50
2018-05-08T20:51:06.048Z,6.00
2018-05-08T20:53:34.643Z,4.97
2018-05-08T20:56:03.277Z,4.17
2018-05-08T20:58:31.640Z,4.23
2018-05-08T21:01:00.354Z,4.23
2018-05-08T21:03:29.365Z,4.53
2018-05-08T21:05:58.130Z,4.50
2018-05-08T21:08:27.869Z,4.30
2018-05-08T21:10:56.491Z,4.03
2018-05-08T21:13:25.051Z,4.60
2018-05-08T21:15:53.616Z,3.53
2018-05-08T21:18:22.183Z,3.90
2018-05-08T21:20:50.759Z,3.73
2018-05-08T21:23:19.327Z,4.00
2018-05-08T21:25:47.929Z,3.97
2018-05-08T21:28:21.924Z,4.13
2018-05-08T21:30:55.823Z,3.73
2018-05-08T21:33:24.381Z,3.27
2018-05-08T21:35:52.944Z,4.00
2018-05-08T21:38:21.486Z,3.70
2018-05-08T21:40:49.690Z,3.67
2018-05-08T21:43:18.242Z,3.40
2018-05-08T21:45:46.791Z,3.67
2018-05-08T21:48:15.343Z,3.53
2018-05-08T21:50:43.913Z,3.50
2018-05-08T21:53:12.577Z,3.47
2018-05-08T21:55:41.141Z,3.53
2018-05-08T21:58:09.710Z,3.50
2018-05-08T22:00:38.323Z,3.57
2018-05-08T22:03:06.884Z,3.70
2018-05-08T22:05:35.449Z,4.00
2018-05-08T22:08:04.000Z,3.90
2018-05-08T22:10:32.583Z,4.20
2018-05-08T22:13:01.174Z,6.20
2018-05-08T22:15:29.744Z,4.70
2018-05-08T22:17:58.322Z,4.80
2018-05-08T22:20:26.983Z,4.00
2018-05-08T22:22:55.548Z,3.70
2018-05-08T22:25:24.131Z,4.37
2018-05-08T22:27:52.756Z,3.93
2018-05-08T22:30:21.488Z,4.10
2018-05-08T22:32:50.047Z,4.10
2018-05-08T22:35:18.612Z,3.97
2018-05-08T22:37:47.236Z,3.80
2018-05-08T22:40:15.798Z,3.83
2018-05-08T22:42:44.415Z,3.57
2018-05-08T22:45:13.034Z,3.40
2018-05-08T22:47:41.721Z,4.13
2018-05-08T22:50:10.309Z,3.73
2018-05-08T22:52:38.901Z,4.27
2018-05-08T22:55:07.455Z,5.10
2018-05-08T22:57:36.065Z,4.10
2018-05-08T23:00:05.936Z,3.83
2018-05-08T23:02:34.509Z,3.53
2018-05-08T23:05:03.269Z,3.70
2018-05-08T23:07:31.850Z,3.37
2018-05-08T23:10:00.469Z,3.63
2018-05-08T23:12:29.031Z,3.37
2018-05-08T23:14:57.632Z,3.90
2018-05-08T23:17:26.212Z,3.50
2018-05-08T23:19:54.966Z,3.33
2018-05-08T23:22:23.571Z,2.70
2018-05-08T23:24:52.159Z,3.47
2018-05-08T23:27:20.706Z,3.30
2018-05-08T23:29:49.304Z,3.50
2018-05-08T23:32:17.871Z,3.60
2018-05-08T23:34:46.442Z,3.40
2018-05-08T23:37:14.998Z,4.17
2018-05-08T23:39:43.603Z,3.60
2018-05-08T23:42:12.155Z,3.93
2018-05-08T23:44:40.727Z,3.87
2018-05-08T23:47:09.296Z,3.53
2018-05-08T23:49:37.892Z,3.60
2018-05-08T23:52:06.447Z,3.90
2018-05-08T23:54:35.042Z,3.67
2018-05-08T23:57:03.617Z,3.70
2018-05-08T23:59:32.167Z,3.60
